createdAt,value
2022-11-22T00:00:43.301Z,126.70
2022-11-22T00:03:17.826Z,155.30
2022-11-22T00:05:44.897Z,120.70
2022-11-22T00:08:12.101Z,110.50
2022-11-22T00:10:39.225Z,95.10
2022-11-22T00:13:06.356Z,106.30
2022-11-22T00:15:33.438Z,98.30
2022-11-22T00:18:00.626Z,113.40
2022-11-22T00:20:27.877Z,105.50
2022-11-22T00:22:57.255Z,107.60
2022-11-22T00:25:24.483Z,109.20
2022-11-22T00:27:51.684Z,183.70
2022-11-22T00:30:18.835Z,265.30
2022-11-22T00:32:45.832Z,165.90
2022-11-22T00:35:13.074Z,158.10
2022-11-22T00:37:40.137Z,140.80
2022-11-22T00:40:07.796Z,179.50
2022-11-22T00:42:34.896Z,127.30
2022-11-22T00:45:01.892Z,112.50
2022-11-22T00:47:28.992Z,119.90
2022-11-22T00:49:56.066Z,144.00
2022-11-22T00:52:23.166Z,130.40
2022-11-22T00:54:54.575Z,125.90
2022-11-22T00:57:22.379Z,118.70
2022-11-22T00:59:49.611Z,118.30
2022-11-22T01:02:16.658Z,115.60
2022-11-22T01:04:43.705Z,138.40
2022-11-22T01:07:10.812Z,117.00
2022-11-22T01:09:37.903Z,129.50
2022-11-22T01:12:05.433Z,136.30
2022-11-22T01:14:32.513Z,135.30
2022-11-22T01:16:59.611Z,136.50
2022-11-22T01:19:26.720Z,116.60
2022-11-22T01:21:53.868Z,113.90
2022-11-22T01:24:20.912Z,117.70
2022-11-22T01:26:47.879Z,113.50
2022-11-22T01:29:15.493Z,103.60
2022-11-22T01:31:42.525Z,114.00
2022-11-22T01:34:09.539Z,131.00
2022-11-22T01:36:36.610Z,128.70
2022-11-22T01:39:03.965Z,120.80
2022-11-22T01:41:31.065Z,129.60
2022-11-22T01:43:58.104Z,153.70
2022-11-22T01:46:33.380Z,144.70
2022-11-22T01:49:04.806Z,129.10
2022-11-22T01:51:39.431Z,145.10
2022-11-22T01:54:24.399Z,121.50
2022-11-22T01:56:56.445Z,126.80
2022-11-22T01:59:28.459Z,121.20
2022-11-22T02:01:56.756Z,132.80
2022-11-22T02:04:30.797Z,162.00
2022-11-22T02:07:12.497Z,135.10
2022-11-22T02:09:42.533Z,131.60
2022-11-22T02:12:12.192Z,208.20
2022-11-22T02:14:40.849Z,202.50
2022-11-22T02:17:08.003Z,189.00
2022-11-22T02:19:47.668Z,193.90
2022-11-22T02:22:17.354Z,175.40
2022-11-22T02:24:54.105Z,168.00
2022-11-22T02:27:21.357Z,134.80
2022-11-22T02:29:48.485Z,148.70
2022-11-22T02:32:15.582Z,131.40
2022-11-22T02:34:47.829Z,116.30
2022-11-22T02:37:18.920Z,150.20
2022-11-22T02:39:48.400Z,149.00
2022-11-22T02:42:15.858Z,170.70
2022-11-22T02:44:43.008Z,150.20
2022-11-22T02:47:10.107Z,165.20
2022-11-22T02:49:37.130Z,168.00
2022-11-22T02:52:04.358Z,162.00
2022-11-22T02:54:31.484Z,173.30
2022-11-22T02:56:58.782Z,147.40
2022-11-22T02:59:25.784Z,133.40
2022-11-22T03:01:52.834Z,153.20
2022-11-22T03:04:25.895Z,145.30
2022-11-22T03:06:54.916Z,135.00
2022-11-22T03:09:22.453Z,153.90
2022-11-22T03:11:49.651Z,159.80
2022-11-22T03:14:17.169Z,165.40
2022-11-22T03:16:45.593Z,147.00
2022-11-22T03:19:14.329Z,168.20
2022-11-22T03:21:43.152Z,164.00
2022-11-22T03:24:11.035Z,183.60
2022-11-22T03:26:39.070Z,178.90
2022-11-22T03:29:06.285Z,176.40
2022-11-22T03:31:33.485Z,151.10
2022-11-22T03:34:00.562Z,134.10
2022-11-22T03:36:27.583Z,143.90
2022-11-22T03:38:54.582Z,135.10
2022-11-22T03:41:21.653Z,160.80
2022-11-22T03:43:48.704Z,179.70
2022-11-22T03:46:17.696Z,157.30
2022-11-22T03:48:44.821Z,150.50
2022-11-22T03:51:11.906Z,163.30
2022-11-22T03:53:39.352Z,164.30
2022-11-22T03:56:06.558Z,168.40
2022-11-22T03:58:34.268Z,155.00
2022-11-22T04:01:01.415Z,139.50
2022-11-22T04:03:28.940Z,127.40
2022-11-22T04:05:56.078Z,104.30
2022-11-22T04:08:23.205Z,92.10
2022-11-22T04:10:51.107Z,87.50
2022-11-22T04:13:18.782Z,91.30
2022-11-22T04:15:45.780Z,105.10
2022-11-22T04:18:14.417Z,102.00
2022-11-22T04:21:00.536Z,108.30
2022-11-22T04:26:01.032Z,101.50
2022-11-22T04:28:53.657Z,95.40
2022-11-22T04:31:33.810Z,95.40
2022-11-22T04:34:01.002Z,70.10
2022-11-22T04:36:28.501Z,80.60
2022-11-22T04:38:55.544Z,91.30
2022-11-22T04:41:23.079Z,88.40
2022-11-22T04:44:09.077Z,91.80
2022-11-22T04:49:03.078Z,93.20
2022-11-22T04:51:49.058Z,106.70
2022-11-22T04:54:16.104Z,94.50
2022-11-22T04:56:43.103Z,115.00
2022-11-22T04:59:10.177Z,83.50
2022-11-22T05:01:37.298Z,79.20
2022-11-22T05:04:04.535Z,87.20
2022-11-22T05:06:31.552Z,97.60
2022-11-22T05:08:59.059Z,91.90
2022-11-22T05:11:26.138Z,132.00
2022-11-22T05:13:53.181Z,138.10
2022-11-22T05:16:20.231Z,121.80
2022-11-22T05:18:59.468Z,113.30
2022-11-22T05:21:28.383Z,104.50
2022-11-22T05:23:55.854Z,114.20
2022-11-22T05:26:30.108Z,93.20
2022-11-22T05:29:01.020Z,95.20
2022-11-22T05:31:28.116Z,132.90
2022-11-22T05:33:57.158Z,100.00
2022-11-22T05:36:25.068Z,133.50
2022-11-22T05:38:52.543Z,97.60
2022-11-22T05:41:20.102Z,157.70
2022-11-22T05:43:47.458Z,136.70
2022-11-22T05:46:24.388Z,96.20
2022-11-22T05:48:53.943Z,98.20
2022-11-22T05:51:23.401Z,84.40
2022-11-22T05:53:50.498Z,66.60
2022-11-22T05:56:19.826Z,77.90
2022-11-22T05:58:47.454Z,99.40
2022-11-22T06:01:19.761Z,224.10
2022-11-22T06:03:47.140Z,190.90
2022-11-22T06:06:14.748Z,109.70
2022-11-22T06:08:45.226Z,115.50
2022-11-22T06:11:21.292Z,118.60
2022-11-22T06:13:50.975Z,162.60
2022-11-22T06:16:18.070Z,132.00
2022-11-22T06:18:45.401Z,118.30
2022-11-22T06:21:15.855Z,100.50
2022-11-22T06:23:43.185Z,141.10
2022-11-22T06:26:12.997Z,127.70
2022-11-22T06:28:41.069Z,175.70
2022-11-22T06:31:12.677Z,286.80
2022-11-22T06:33:40.592Z,172.90
2022-11-22T06:36:10.098Z,192.30
2022-11-22T06:38:38.427Z,180.90
2022-11-22T06:41:08.291Z,169.00
2022-11-22T06:43:36.904Z,137.10
2022-11-22T06:46:05.869Z,124.00
2022-11-22T06:48:35.169Z,117.40
2022-11-22T06:51:10.284Z,113.70
2022-11-22T06:53:51.997Z,101.20
2022-11-22T06:56:25.709Z,102.20
2022-11-22T06:58:54.089Z,102.20
2022-11-22T07:01:26.595Z,123.80
2022-11-22T07:03:58.670Z,139.80
2022-11-22T07:06:33.830Z,130.60
2022-11-22T07:09:02.656Z,132.10
2022-11-22T07:11:31.622Z,135.60
2022-11-22T07:14:05.334Z,131.70
2022-11-22T07:16:35.631Z,175.70
2022-11-22T07:19:02.782Z,118.00
2022-11-22T07:21:29.900Z,89.90
2022-11-22T07:23:56.902Z,130.60
2022-11-22T07:26:26.812Z,110.70
2022-11-22T07:28:54.024Z,105.00
2022-11-22T07:31:21.142Z,156.10
2022-11-22T07:33:48.316Z,169.10
2022-11-22T07:36:18.282Z,137.20
2022-11-22T07:38:45.745Z,134.50
2022-11-22T07:41:13.761Z,119.90
2022-11-22T07:43:41.526Z,117.40
2022-11-22T07:46:21.425Z,127.40
2022-11-22T07:48:49.907Z,120.40
2022-11-22T07:51:17.749Z,113.90
2022-11-22T07:53:44.846Z,124.00
2022-11-22T07:56:12.111Z,89.70
2022-11-22T07:58:39.446Z,106.70
2022-11-22T08:01:14.170Z,105.20
2022-11-22T08:03:41.310Z,90.10
2022-11-22T08:06:10.661Z,99.50
2022-11-22T08:08:38.144Z,96.50
2022-11-22T08:11:06.499Z,87.50
2022-11-22T08:13:34.239Z,93.10
2022-11-22T08:16:07.106Z,108.00
2022-11-22T08:18:35.789Z,101.40
2022-11-22T08:21:06.853Z,95.10
2022-11-22T08:23:34.735Z,100.10
2022-11-22T08:26:02.022Z,114.20
2022-11-22T08:28:29.347Z,90.10
2022-11-22T08:31:01.701Z,90.90
2022-11-22T08:33:28.955Z,104.30
2022-11-22T08:35:56.051Z,106.30
2022-11-22T08:38:23.715Z,112.50
2022-11-22T08:40:51.098Z,111.00
2022-11-22T08:43:18.520Z,90.00
2022-11-22T08:45:45.731Z,95.20
2022-11-22T08:48:16.410Z,93.20
2022-11-22T08:50:53.722Z,86.10
2022-11-22T08:53:21.471Z,69.40
2022-11-22T08:55:49.162Z,145.90
2022-11-22T08:58:16.252Z,98.00
2022-11-22T09:00:44.123Z,69.70
2022-11-22T09:03:11.373Z,71.60
2022-11-22T09:08:25.545Z,54.30
2022-11-22T09:10:52.742Z,114.60
2022-11-22T09:13:19.793Z,112.10
2022-11-22T09:15:46.942Z,96.70
2022-11-22T09:18:13.990Z,92.70
2022-11-22T09:20:40.985Z,99.50
2022-11-22T09:23:08.008Z,91.60
2022-11-22T09:25:35.057Z,86.00
2022-11-22T09:28:04.849Z,84.10
2022-11-22T09:30:31.820Z,91.80
2022-11-22T09:32:58.897Z,80.50
2022-11-22T09:35:25.862Z,73.20
2022-11-22T09:37:52.910Z,86.90
2022-11-22T09:40:20.286Z,116.10
2022-11-22T09:42:53.431Z,90.20
2022-11-22T09:45:30.103Z,104.70
2022-11-22T09:48:29.382Z,87.20
2022-11-22T09:51:17.448Z,95.20
2022-11-22T09:53:52.131Z,69.90
2022-11-22T09:56:23.995Z,87.60
2022-11-22T09:58:56.771Z,82.60
2022-11-22T10:01:42.227Z,91.60
2022-11-22T10:04:12.731Z,106.80
2022-11-22T10:06:51.586Z,72.70
2022-11-22T10:09:36.955Z,72.40
2022-11-22T10:12:13.297Z,66.70
2022-11-22T10:14:43.161Z,99.60
2022-11-22T10:17:35.401Z,70.70
2022-11-22T10:20:21.422Z,75.40
2022-11-22T10:25:20.660Z,95.00
2022-11-22T10:28:00.587Z,108.10
2022-11-22T10:30:35.829Z,98.10
2022-11-22T10:33:52.566Z,106.90
2022-11-22T10:36:44.163Z,110.40
2022-11-22T10:39:38.454Z,109.30
2022-11-22T10:42:27.245Z,87.10
2022-11-22T10:45:11.868Z,83.90
2022-11-22T10:48:03.764Z,90.30
2022-11-22T10:50:43.063Z,95.90
2022-11-22T10:53:31.619Z,118.40
2022-11-22T10:56:20.292Z,107.40
2022-11-22T10:59:05.801Z,100.20
2022-11-22T11:01:55.761Z,89.30
2022-11-22T11:04:24.393Z,112.10
2022-11-22T11:07:12.014Z,123.30
2022-11-22T11:12:47.062Z,112.60
2022-11-22T11:15:32.770Z,98.20
2022-11-22T11:18:06.855Z,115.00
2022-11-22T11:20:38.924Z,114.20
2022-11-22T11:23:15.273Z,128.60
2022-11-22T11:25:45.609Z,129.10
2022-11-22T11:28:23.049Z,148.40
2022-11-22T11:30:55.612Z,135.10
2022-11-22T11:33:32.996Z,136.10
2022-11-22T11:36:07.707Z,151.90
2022-11-22T11:38:50.722Z,140.60
2022-11-22T11:41:19.102Z,127.00
2022-11-22T11:43:47.044Z,134.10
2022-11-22T11:46:20.481Z,126.70
2022-11-22T11:48:49.614Z,106.10
2022-11-22T11:51:25.910Z,104.50
2022-11-22T11:54:03.832Z,130.40
2022-11-22T11:56:35.002Z,124.00
2022-11-22T11:59:08.175Z,113.50
2022-11-22T12:01:38.917Z,126.30
2022-11-22T12:04:14.609Z,129.80
2022-11-22T12:06:41.607Z,108.60
2022-11-22T12:09:28.978Z,129.70
2022-11-22T12:12:02.478Z,121.50
2022-11-22T12:14:48.796Z,120.50
2022-11-22T12:17:29.854Z,87.50
2022-11-22T12:20:04.530Z,99.00
2022-11-22T12:22:49.778Z,56.60
2022-11-22T12:25:37.773Z,123.80
2022-11-22T12:28:32.030Z,122.60
2022-11-22T12:31:22.306Z,134.40
2022-11-22T12:34:22.087Z,132.30
2022-11-22T12:37:15.455Z,120.80
2022-11-22T12:39:48.344Z,157.00
2022-11-22T12:42:33.512Z,168.70
2022-11-22T12:45:06.501Z,142.50
2022-11-22T12:47:40.486Z,111.80
2022-11-22T12:50:10.099Z,122.80
2022-11-22T12:52:46.512Z,156.60
2022-11-22T12:55:20.496Z,141.80
2022-11-22T12:58:21.337Z,161.00
2022-11-22T13:00:59.302Z,153.90
2022-11-22T13:03:44.311Z,126.30
2022-11-22T13:06:13.523Z,112.60
2022-11-22T13:09:04.296Z,122.80
2022-11-22T13:11:37.685Z,132.60
2022-11-22T13:14:19.362Z,121.80
2022-11-22T13:16:50.882Z,136.20
2022-11-22T13:19:22.869Z,121.50
2022-11-22T13:22:16.081Z,119.40
2022-11-22T13:25:07.832Z,120.10
2022-11-22T13:27:44.768Z,110.50
2022-11-22T13:30:24.919Z,110.90
2022-11-22T13:32:55.345Z,98.80
2022-11-22T13:35:32.442Z,104.10
2022-11-22T13:38:06.158Z,107.90
2022-11-22T13:41:19.211Z,110.90
2022-11-22T13:43:55.422Z,119.70
2022-11-22T13:47:03.433Z,255.40
2022-11-22T13:49:39.098Z,163.50
2022-11-22T13:52:17.395Z,114.90
2022-11-22T13:54:47.428Z,121.60
2022-11-22T13:57:31.906Z,142.40
2022-11-22T14:00:14.382Z,104.30
2022-11-22T14:02:48.682Z,91.20
2022-11-22T14:05:25.627Z,108.10
2022-11-22T14:07:56.129Z,125.60
2022-11-22T14:10:49.869Z,112.50
2022-11-22T14:13:19.591Z,139.60
2022-11-22T14:16:10.635Z,122.00
2022-11-22T14:18:53.157Z,118.40
2022-11-22T14:21:51.340Z,120.50
2022-11-22T14:24:50.492Z,102.10
2022-11-22T14:27:29.853Z,103.40
2022-11-22T14:30:19.098Z,108.10
2022-11-22T14:33:02.406Z,98.60
2022-11-22T14:35:35.493Z,97.70
2022-11-22T14:38:32.007Z,107.80
2022-11-22T14:43:45.841Z,119.90
2022-11-22T14:46:51.123Z,119.80
2022-11-22T14:49:18.014Z,116.90
2022-11-22T14:51:46.075Z,150.30
2022-11-22T14:54:26.972Z,129.30
2022-11-22T14:57:01.241Z,104.50
2022-11-22T14:59:52.402Z,95.00
2022-11-22T15:02:25.671Z,92.60
2022-11-22T15:09:10.682Z,83.20
2022-11-22T15:09:20.088Z,84.60
2022-11-22T15:11:14.680Z,100.40
2022-11-22T15:14:15.951Z,110.90
2022-11-22T15:57:28.497Z,257.20
2022-11-22T15:59:56.133Z,203.90
2022-11-22T16:02:27.779Z,109.30
2022-11-22T16:06:07.463Z,122.30
2022-11-22T16:10:22.376Z,120.80
2022-11-22T16:12:50.183Z,173.80
2022-11-22T16:15:26.114Z,170.00
2022-11-22T16:18:01.251Z,127.20
2022-11-22T16:20:31.524Z,127.70
2022-11-22T16:23:11.898Z,103.20
2022-11-22T16:25:50.017Z,91.80
2022-11-22T16:28:20.097Z,118.90
2022-11-22T16:30:47.881Z,114.10
2022-11-22T16:33:15.263Z,97.60
2022-11-22T16:35:42.537Z,88.90
2022-11-22T16:38:10.890Z,74.50
2022-11-22T16:40:43.882Z,70.70
2022-11-22T16:43:22.268Z,80.80
2022-11-22T16:45:50.750Z,98.70
2022-11-22T16:48:31.921Z,89.90
2022-11-22T16:51:12.184Z,118.40
2022-11-22T16:53:44.200Z,86.00
2022-11-22T16:56:20.540Z,116.90
2022-11-22T16:58:49.153Z,113.70
2022-11-22T17:01:19.434Z,119.50
2022-11-22T17:03:48.445Z,97.10
2022-11-22T17:06:18.779Z,135.30
2022-11-22T17:08:47.564Z,159.40
2022-11-22T17:11:17.348Z,140.60
2022-11-22T17:13:44.777Z,110.40
2022-11-22T17:16:12.570Z,114.60
2022-11-22T17:18:40.331Z,181.40
2022-11-22T17:21:16.391Z,122.10
2022-11-22T17:23:44.082Z,122.80
2022-11-22T17:26:11.154Z,125.50
2022-11-22T17:28:38.278Z,114.80
2022-11-22T17:31:14.645Z,101.50
2022-11-22T17:33:41.719Z,85.70
2022-11-22T17:36:31.885Z,107.00
2022-11-22T17:39:01.364Z,148.20
2022-11-22T17:41:30.540Z,133.10
2022-11-22T17:43:58.099Z,235.00
2022-11-22T17:46:25.427Z,208.00
2022-11-22T17:48:55.062Z,142.20
2022-11-22T17:51:22.598Z,109.20
2022-11-22T17:53:50.003Z,106.20
2022-11-22T17:56:17.486Z,136.10
2022-11-22T17:58:44.771Z,152.70
2022-11-22T18:01:15.219Z,104.60
2022-11-22T18:03:42.891Z,97.50
2022-11-22T18:06:11.617Z,118.40
2022-11-22T18:08:46.444Z,175.90
2022-11-22T18:11:15.033Z,110.70
2022-11-22T18:13:42.647Z,80.00
2022-11-22T18:16:14.250Z,81.60
2022-11-22T18:18:56.858Z,96.00
2022-11-22T18:21:26.267Z,90.40
2022-11-22T18:23:53.392Z,104.80
2022-11-22T18:29:38.995Z,132.00
2022-11-22T18:31:56.154Z,126.90
2022-11-22T18:34:23.417Z,119.10
2022-11-22T18:37:06.759Z,105.80
2022-11-22T18:39:39.276Z,95.90
2022-11-22T18:42:09.006Z,88.30
2022-11-22T18:44:36.115Z,79.40
2022-11-22T18:47:03.259Z,94.10
2022-11-22T18:49:30.866Z,138.10
2022-11-22T18:51:58.466Z,167.50
2022-11-22T18:54:25.605Z,148.30
2022-11-22T18:56:53.039Z,132.10
2022-11-22T18:59:20.111Z,134.10
2022-11-22T19:01:47.289Z,158.70
2022-11-22T19:04:15.490Z,137.20
2022-11-22T19:06:43.332Z,131.30
2022-11-22T19:09:10.836Z,105.30
2022-11-22T19:11:38.122Z,101.20
2022-11-22T19:14:05.805Z,96.20
2022-11-22T19:16:32.987Z,108.10
2022-11-22T19:19:00.363Z,121.60
2022-11-22T19:21:28.652Z,138.80
2022-11-22T19:23:56.750Z,158.50
2022-11-22T19:26:26.070Z,151.40
2022-11-22T19:28:56.158Z,146.00
2022-11-22T19:31:27.983Z,212.40
2022-11-22T19:33:55.536Z,207.90
2022-11-22T19:36:30.837Z,182.30
2022-11-22T19:39:00.076Z,122.70
2022-11-22T19:41:27.266Z,98.10
2022-11-22T19:43:56.010Z,112.40
2022-11-22T19:46:23.826Z,98.10
2022-11-22T19:48:52.000Z,106.50
2022-11-22T19:51:19.481Z,122.40
2022-11-22T19:53:47.252Z,111.30
2022-11-22T19:56:17.137Z,119.60
2022-11-22T19:58:49.792Z,115.50
2022-11-22T20:01:17.613Z,121.10
2022-11-22T20:03:45.014Z,102.10
2022-11-22T20:06:14.198Z,105.50
2022-11-22T20:08:41.528Z,112.00
2022-11-22T20:11:11.994Z,97.20
2022-11-22T20:13:43.478Z,88.10
2022-11-22T20:16:25.266Z,122.20
2022-11-22T20:18:55.974Z,126.90
2022-11-22T20:21:24.309Z,116.10
2022-11-22T20:23:52.172Z,123.90
2022-11-22T20:26:21.496Z,105.30
2022-11-22T20:29:04.981Z,97.80
2022-11-22T20:31:33.796Z,114.70
2022-11-22T20:34:02.056Z,97.40
2022-11-22T20:36:32.476Z,73.80
2022-11-22T20:39:04.035Z,63.00
2022-11-22T20:41:35.071Z,73.80
2022-11-22T20:44:02.118Z,67.80
2022-11-22T20:46:29.140Z,89.10
2022-11-22T20:48:58.067Z,103.50
2022-11-22T20:51:27.513Z,99.30
2022-11-22T20:53:55.820Z,89.10
2022-11-22T20:56:23.093Z,80.40
2022-11-22T20:58:50.538Z,88.60
2022-11-22T21:01:20.216Z,77.30
2022-11-22T21:03:48.015Z,70.80
2022-11-22T21:06:16.791Z,59.80
2022-11-22T21:08:45.917Z,75.90
2022-11-22T21:11:15.699Z,61.80
2022-11-22T21:13:43.822Z,63.20
2022-11-22T21:16:22.707Z,66.60
2022-11-22T21:19:01.881Z,106.50
2022-11-22T21:21:29.977Z,170.80
2022-11-22T21:24:00.110Z,198.00
2022-11-22T21:26:27.948Z,186.20
2022-11-22T21:28:55.552Z,238.00
2022-11-22T21:31:23.317Z,130.50
2022-11-22T21:33:50.953Z,84.10
2022-11-22T21:36:19.026Z,112.10
2022-11-22T21:38:46.154Z,104.10
2022-11-22T21:44:05.747Z,223.70
2022-11-22T21:46:32.792Z,129.60
2022-11-22T21:48:59.789Z,200.10
2022-11-22T21:51:26.932Z,175.10
2022-11-22T21:54:01.625Z,134.60
2022-11-22T21:56:29.716Z,118.30
2022-11-22T21:58:56.786Z,107.70
2022-11-22T22:01:24.639Z,147.30
2022-11-22T22:03:52.144Z,126.00
2022-11-22T22:06:19.247Z,127.60
2022-11-22T22:08:46.287Z,145.50
2022-11-22T22:11:13.571Z,121.80
2022-11-22T22:13:40.638Z,173.40
2022-11-22T22:16:08.917Z,168.50
2022-11-22T22:18:37.636Z,157.80
2022-11-22T22:21:07.416Z,131.00
2022-11-22T22:23:35.804Z,157.10
2022-11-22T22:26:04.866Z,135.80
2022-11-22T22:28:33.963Z,113.20
2022-11-22T22:31:04.824Z,99.80
2022-11-22T22:33:32.514Z,95.30
2022-11-22T22:35:59.997Z,81.90
2022-11-22T22:38:27.199Z,105.10
2022-11-22T22:40:56.088Z,105.50
2022-11-22T22:43:24.008Z,113.60
2022-11-22T22:45:51.545Z,84.40
2022-11-22T22:48:19.486Z,98.80
2022-11-22T22:50:46.585Z,114.60
2022-11-22T22:53:13.684Z,80.10
2022-11-22T22:55:40.786Z,92.30
2022-11-22T22:58:11.599Z,87.80
2022-11-22T23:00:39.206Z,76.70
2022-11-22T23:03:06.246Z,116.70
2022-11-22T23:05:33.381Z,147.50
2022-11-22T23:08:00.837Z,156.60
2022-11-22T23:10:27.988Z,127.40
2022-11-22T23:12:55.040Z,100.60
2022-11-22T23:15:43.813Z,100.80
2022-11-22T23:18:09.510Z,86.90
2022-11-22T23:20:36.675Z,82.00
2022-11-22T23:23:03.816Z,76.00
2022-11-22T23:25:30.961Z,75.50
2022-11-22T23:27:58.112Z,75.60
2022-11-22T23:30:25.109Z,86.80
2022-11-22T23:32:52.235Z,86.60
2022-11-22T23:35:19.258Z,91.30
2022-11-22T23:37:46.306Z,90.90
2022-11-22T23:40:13.380Z,79.10
2022-11-22T23:42:40.467Z,91.20
2022-11-22T23:45:08.744Z,87.60
2022-11-22T23:47:35.853Z,88.80
2022-11-22T23:50:03.267Z,75.20
2022-11-22T23:52:30.305Z,69.90
2022-11-22T23:54:57.338Z,59.50
2022-11-22T23:57:24.432Z,72.10
2022-11-22T23:59:51.454Z,94.50
